Time;durP1;ratioP1;P1;durP2;ratioP2;P2;SDS_P1;SDS_P2;PMS_P1;PMS_P2;Temp;Humidity;BMP_temperature;BMP_pressure;BME280_temperature;BME280_humidity;BME280_pressure;Samples;Min_cycle;Max_cycle;Signal;HPM_P1;HPM_P2
2022/03/05 00:02:21;;;;;;;3.75;0.80;;;;;;;17.84;52.36;99614.09;4999544;28;20026;-93
2022/03/05 00:05:01;;;;;;;2.15;0.85;;;;;;;17.84;52.34;99609.66;4983277;28;20015;-96
2022/03/05 00:07:52;;;;;;;2.78;1.25;;;;;;;17.85;52.04;99607.88;4998023;28;20018;-96
2022/03/05 00:10:42;;;;;;;3.13;0.90;;;;;;;17.84;52.55;99611.44;4998991;28;20019;-96
2022/03/05 00:13:20;;;;;;;3.28;1.02;;;;;;;17.84;52.63;99598.25;4997234;28;20050;-95
2022/03/05 00:16:05;;;;;;;3.83;1.13;;;;;;;17.84;52.49;99607.00;4998458;28;20039;-96
2022/03/05 00:18:37;;;;;;;2.90;1.27;;;;;;;17.85;52.29;99600.84;4981954;28;20102;-95
2022/03/05 00:21:03;;;;;;;2.53;1.10;;;;;;;17.85;52.50;99607.88;4981667;28;20054;-96
2022/03/05 00:23:30;;;;;;;2.05;0.85;;;;;;;17.85;52.61;99605.25;4998603;28;20025;-95
2022/03/05 00:25:58;;;;;;;3.05;1.00;;;;;;;17.85;52.96;99599.97;4998202;28;20461;-96
2022/03/05 00:28:38;;;;;;;2.97;0.98;;;;;;;17.85;52.71;99602.59;4998727;28;20112;-96
2022/03/05 00:31:34;;;;;;;2.50;0.98;;;;;;;17.85;52.74;99599.97;5267950;23;20038;-96
2022/03/05 00:34:00;;;;;;;2.80;1.00;;;;;;;17.85;52.57;99599.97;5021457;28;20026;-96
2022/03/05 00:36:30;;;;;;;2.58;1.23;;;;;;;17.85;52.64;99589.41;5021340;28;20034;-95
2022/03/05 00:43:14;;;;;;;4.47;1.27;;;;;;;17.87;52.33;99587.53;5250637;23;20061;-95
2022/03/05 00:45:44;;;;;;;2.10;0.75;;;;;;;17.85;53.24;99594.69;5013114;28;20039;-96
2022/03/05 00:48:14;;;;;;;2.85;1.00;;;;;;;17.85;52.96;99590.28;4986412;28;20010;-96
2022/03/05 00:50:44;;;;;;;2.53;1.08;;;;;;;17.87;52.78;99589.34;4969818;28;20046;-94
2022/03/05 00:53:17;;;;;;;3.72;1.05;;;;;;;17.87;52.55;99595.47;5001690;28;20010;-96
2022/03/05 00:55:49;;;;;;;3.70;1.00;;;;;;;17.88;52.92;99589.28;4971266;28;20022;-95
2022/03/05 00:58:20;;;;;;;2.78;0.93;;;;;;;17.87;52.67;99584.06;5018882;28;20160;-95
2022/03/05 01:00:48;;;;;;;3.42;1.00;;;;;;;17.88;52.41;99584.00;4970165;28;20019;-93
2022/03/05 01:03:18;;;;;;;3.80;0.93;;;;;;;17.90;52.86;99578.63;5001839;28;20011;-95
2022/03/05 01:05:44;;;;;;;3.17;1.00;;;;;;;17.90;53.15;99579.50;5000489;28;20013;-95
2022/03/05 01:08:16;;;;;;;3.03;1.05;;;;;;;17.89;52.69;99575.16;5005672;28;20006;-94
2022/03/05 01:13:18;;;;;;;4.53;1.10;;;;;;;17.89;52.87;99583.06;5379786;22;20049;-94
2022/03/05 01:15:48;;;;;;;4.55;0.93;;;;;;;17.90;52.70;99582.13;5004715;28;20015;-95
2022/03/05 01:18:15;;;;;;;3.33;1.13;;;;;;;17.90;52.79;99573.34;5005283;28;20045;-94
2022/03/05 01:20:43;;;;;;;4.55;1.02;;;;;;;17.90;52.87;99579.50;5003795;28;20038;-94
2022/03/05 01:23:13;;;;;;;3.03;1.10;;;;;;;17.89;52.88;99569.88;5004945;28;20274;-94
2022/03/05 01:25:40;;;;;;;2.97;1.02;;;;;;;17.92;52.84;99580.28;4985385;28;20108;-94
2022/03/05 01:28:08;;;;;;;2.13;0.75;;;;;;;17.92;52.74;99574.16;5004677;28;20038;-93
2022/03/05 01:30:35;;;;;;;2.08;0.88;;;;;;;17.92;52.71;99575.00;4989152;28;20006;-93
2022/03/05 01:33:15;;;;;;;3.05;1.33;;;;;;;17.92;52.84;99575.00;5002853;28;20035;-93
2022/03/05 01:35:57;;;;;;;2.95;1.10;;;;;;;17.90;52.74;99574.22;5020921;28;20026;-92
2022/03/05 01:38:27;;;;;;;2.78;0.88;;;;;;;17.93;52.86;99570.56;5003714;28;20038;-92
2022/03/05 01:41:03;;;;;;;3.28;1.02;;;;;;;17.91;52.81;99575.91;4989319;28;20034;-94
2022/03/05 01:43:30;;;;;;;2.80;1.20;;;;;;;17.91;52.52;99568.00;4989017;28;20031;-94
2022/03/05 01:45:55;;;;;;;1.38;0.63;;;;;;;17.92;52.90;99575.00;5004615;28;20090;-95
2022/03/05 01:48:27;;;;;;;2.58;0.88;;;;;;;17.92;52.86;99574.16;5005033;28;20011;-96
2022/03/05 01:50:55;;;;;;;2.92;1.10;;;;;;;17.92;52.77;99575.00;5004962;28;20025;-95
2022/03/05 01:53:26;;;;;;;2.97;1.02;;;;;;;17.93;53.06;99575.84;4999110;28;20022;-95
2022/03/05 01:56:20;;;;;;;2.55;0.85;;;;;;;17.93;52.61;99565.28;4941819;28;20060;-96
2022/03/05 01:58:53;;;;;;;3.13;0.77;;;;;;;17.93;53.11;99571.41;5003059;28;20042;-96
2022/03/05 02:01:34;;;;;;;2.47;0.75;;;;;;;17.94;52.68;99562.59;5021651;28;20045;-96
2022/03/05 02:10:47;;;;;;;2.65;0.82;;;;;;;17.94;52.63;99557.31;4962361;28;20054;-96
2022/03/05 02:13:16;;;;;;;3.25;1.00;;;;;;;17.94;52.71;99551.16;4935762;28;20056;-96
2022/03/05 02:15:44;;;;;;;2.92;0.70;;;;;;;17.93;52.56;99550.28;4936009;28;20032;-95
2022/03/05 02:18:14;;;;;;;2.65;0.95;;;;;;;17.93;53.00;99550.28;4945543;29;20034;-96
2022/03/05 02:20:51;;;;;;;1.83;0.90;;;;;;;17.95;52.76;99553.75;4961938;28;20043;-96
2022/03/05 02:23:17;;;;;;;3.22;0.98;;;;;;;17.94;52.90;99553.81;4945371;28;20051;-96
2022/03/05 02:26:06;;;;;;;2.95;0.80;;;;;;;17.97;52.66;99554.50;4962186;28;20091;-95
2022/03/05 02:28:44;;;;;;;1.42;0.75;;;;;;;17.96;52.93;99550.16;4946913;29;20019;-96
2022/03/05 02:31:15;;;;;;;2.47;0.70;;;;;;;17.96;52.67;99544.88;4946817;28;20091;-96
2022/03/05 02:33:43;;;;;;;2.53;1.10;;;;;;;17.97;52.76;99540.47;4941010;28;20046;-95
2022/03/05 02:36:39;;;;;;;2.63;0.82;;;;;;;17.97;52.55;99541.31;4946434;28;20203;-96
2022/03/05 02:39:23;;;;;;;2.78;0.95;;;;;;;17.98;52.57;99540.38;4917284;29;20028;-94
2022/03/05 02:55:27;;;;;;;2.65;0.80;;;;;;;17.98;52.87;99536.91;4959706;29;20047;-96
2022/03/05 02:57:57;;;;;;;2.58;0.80;;;;;;;17.98;52.62;99537.75;5005591;28;20022;-95
2022/03/05 03:00:29;;;;;;;2.72;1.10;;;;;;;18.00;52.80;99534.19;5014112;28;20046;-96
2022/03/05 03:03:15;;;;;;;2.00;0.70;;;;;;;17.98;52.43;99537.75;4986749;28;20468;-96
2022/03/05 03:05:48;;;;;;;2.42;0.68;;;;;;;17.99;52.89;99535.97;5017990;28;20038;-96
2022/03/05 03:08:26;;;;;;;2.83;0.93;;;;;;;17.98;53.02;99539.53;4987339;28;20092;-96
2022/03/05 03:11:04;;;;;;;2.50;0.80;;;;;;;17.99;52.37;99538.59;4996293;28;20389;-96
2022/03/05 03:13:41;;;;;;;2.65;1.00;;;;;;;17.98;52.55;99532.47;5001340;28;20076;-96
2022/03/05 03:16:13;;;;;;;;;;;;;;;18.01;52.49;99528.81;5001198;28;20030;-95
2022/03/05 03:18:38;;;;;;;1.50;0.68;;;;;;;17.98;53.09;99537.75;5000797;28;19910;-95
2022/03/05 03:21:08;;;;;;;2.05;0.70;;;;;;;17.98;52.82;99529.81;5001866;28;20020;-96
2022/03/05 03:23:41;;;;;;;1.88;0.77;;;;;;;17.98;52.92;99535.09;5002027;28;20014;-96
2022/03/05 03:26:07;;;;;;;2.90;0.95;;;;;;;18.00;52.88;99531.56;5002141;28;20026;-95
2022/03/05 03:28:33;;;;;;;2.22;0.82;;;;;;;18.00;52.88;99528.91;4987137;28;20015;-96
2022/03/05 03:30:59;;;;;;;2.72;0.88;;;;;;;18.01;52.79;99525.34;5002870;28;20048;-95
2022/03/05 03:33:37;;;;;;;2.17;0.77;;;;;;;18.01;52.56;99517.41;5002822;28;20022;-96
2022/03/05 03:36:05;;;;;;;2.42;0.65;;;;;;;18.00;52.73;99516.56;5010767;28;20094;-95
2022/03/05 03:38:40;;;;;;;1.40;0.60;;;;;;;17.99;52.87;99520.13;5019094;28;20046;-96
2022/03/05 03:41:37;;;;;;;2.42;0.88;;;;;;;18.00;52.75;99518.34;5002860;28;20019;-95
2022/03/05 03:44:09;;;;;;;4.60;0.80;;;;;;;17.99;52.86;99517.47;5017833;28;20034;-96
2022/03/05 03:46:37;;;;;;;1.50;0.60;;;;;;;18.00;52.74;99519.19;5002879;28;20011;-95
2022/03/05 03:49:06;;;;;;;2.45;0.98;;;;;;;18.02;52.48;99516.47;4970804;28;20014;-96
2022/03/05 03:51:32;;;;;;;1.95;0.80;;;;;;;18.01;52.79;99515.63;4978176;28;20038;-95
2022/03/05 03:53:59;;;;;;;3.00;1.00;;;;;;;18.01;53.01;99520.06;5001399;28;20036;-96
2022/03/05 03:59:16;;;;;;;2.55;0.90;;;;;;;18.01;52.82;99514.78;5019390;28;20053;-96
2022/03/05 04:01:43;;;;;;;1.60;0.60;;;;;;;18.02;52.76;99521.75;5002006;28;20033;-94
2022/03/05 04:04:09;;;;;;;2.60;1.00;;;;;;;17.99;52.60;99512.19;5002536;28;20049;-96
2022/03/05 04:09:23;;;;;;;1.80;0.65;;;;;;;18.02;52.78;99522.59;5019477;28;20060;-95
2022/03/05 04:11:56;;;;;;;2.17;0.70;;;;;;;18.01;52.88;99520.06;5001781;28;20031;-95
2022/03/05 04:17:56;;;;;;;2.75;1.00;;;;;;;18.02;52.67;99521.75;5005444;28;20033;-94
2022/03/05 04:24:17;;;;;;;3.10;1.00;;;;;;;18.00;52.57;99523.63;5077350;22;20052;-96
2022/03/05 04:26:42;;;;;;;2.13;0.90;;;;;;;18.02;52.70;99529.69;5021199;28;20057;-95
2022/03/05 04:42:09;;;;;;;4.18;0.98;;;;;;;18.02;52.54;99529.69;5001984;28;20063;-96
2022/03/05 04:44:45;;;;;;;4.15;1.30;;;;;;;18.01;52.37;99526.19;4987224;28;20042;-96
2022/03/05 04:47:18;;;;;;;2.08;0.73;;;;;;;18.00;52.80;99529.75;4986864;28;20022;-94
2022/03/05 04:53:44;;;;;;;2.15;0.80;;;;;;;18.02;52.55;99534.97;5002774;28;20046;-94
2022/03/05 04:56:16;;;;;;;2.28;0.80;;;;;;;18.01;52.71;99531.47;4962534;28;20094;-96
2022/03/05 04:58:48;;;;;;;3.22;0.90;;;;;;;17.98;52.71;99529.81;4971091;28;20127;-94
2022/03/05 05:01:43;;;;;;;3.42;1.00;;;;;;;18.00;52.54;99528.91;4970921;28;20045;-94
2022/03/05 05:04:16;;;;;;;3.30;0.85;;;;;;;17.97;52.25;99530.75;4985996;28;20026;-93
2022/03/05 05:06:41;;;;;;;2.50;1.00;;;;;;;17.97;52.28;99538.66;4986149;28;20022;-95
2022/03/05 05:09:07;;;;;;;4.25;1.25;;;;;;;17.98;52.46;99535.09;4986040;28;20019;-94
2022/03/05 05:11:33;;;;;;;2.92;1.20;;;;;;;17.97;52.67;99540.47;4970074;28;20034;-94
2022/03/05 05:14:06;;;;;;;4.68;1.40;;;;;;;17.95;52.27;99532.63;4986053;28;20046;-95
2022/03/05 05:29:41;;;;;;;3.95;1.20;;;;;;;17.94;52.29;99544.13;4944285;29;20137;-96
2022/03/05 05:32:19;;;;;;;5.35;1.23;;;;;;;17.93;52.24;99545.00;4963042;28;20024;-96
2022/03/05 05:34:49;;;;;;;3.35;1.02;;;;;;;17.92;52.44;99548.59;4962756;28;20051;-95
2022/03/05 05:37:18;;;;;;;2.97;1.15;;;;;;;17.93;52.36;99547.66;4947474;28;20043;-95
2022/03/05 05:39:45;;;;;;;3.88;1.02;;;;;;;17.93;52.03;99550.28;4961619;28;20035;-95
2022/03/05 05:42:12;;;;;;;3.30;1.13;;;;;;;17.90;52.26;99555.72;4946912;28;20044;-95
2022/03/05 05:44:40;;;;;;;4.43;1.17;;;;;;;17.89;52.00;99554.03;4995948;28;20046;-96
2022/03/05 05:47:10;;;;;;;3.80;1.23;;;;;;;17.89;51.94;99554.03;5004743;28;20034;-95
2022/03/05 05:49:52;;;;;;;4.80;1.58;;;;;;;17.89;51.99;99551.38;5004770;28;20015;-96
2022/03/05 05:52:18;;;;;;;4.13;1.05;;;;;;;17.89;51.95;99547.88;5003343;28;20022;-95
2022/03/05 05:54:45;;;;;;;3.17;1.23;;;;;;;17.88;52.19;99547.03;4981920;28;20095;-96
2022/03/05 05:57:12;;;;;;;3.78;1.08;;;;;;;17.88;52.09;99549.69;4965887;28;20023;-96
2022/03/05 05:59:38;;;;;;;3.22;1.10;;;;;;;17.86;52.12;99548.88;4950279;28;20023;-96
2022/03/05 06:02:17;;;;;;;3.40;1.13;;;;;;;17.87;52.28;99542.66;4950023;28;20018;-96
2022/03/05 06:04:44;;;;;;;4.60;1.20;;;;;;;17.85;51.97;99547.16;4980946;28;20026;-95
2022/03/05 06:07:12;;;;;;;4.03;1.15;;;;;;;17.83;52.16;99543.75;4976682;28;20020;-96
2022/03/05 06:09:40;;;;;;;3.53;1.20;;;;;;;17.83;52.08;99549.88;4981711;28;20019;-95
2022/03/05 06:12:11;;;;;;;2.65;1.15;;;;;;;17.83;52.06;99546.41;4980037;28;20019;-94
2022/03/05 06:14:38;;;;;;;4.18;1.33;;;;;;;17.83;52.30;99549.03;4981428;28;20059;-95
2022/03/05 06:17:08;;;;;;;4.10;1.17;;;;;;;17.83;51.88;99549.03;4981751;28;20015;-96
2022/03/05 06:19:33;;;;;;;3.35;1.40;;;;;;;17.84;51.96;99548.09;4933117;28;20058;-95
2022/03/05 06:22:04;;;;;;;3.17;0.95;;;;;;;17.84;51.78;99546.31;4981132;28;20047;-96
2022/03/05 06:24:31;;;;;;;2.92;1.10;;;;;;;17.81;52.00;99550.88;4981539;28;20012;-95
2022/03/05 06:27:00;;;;;;;2.58;0.90;;;;;;;17.80;52.07;99544.75;4965498;28;20030;-94
2022/03/05 06:29:29;;;;;;;2.90;0.95;;;;;;;17.78;51.99;99546.59;4964000;28;20047;-96
2022/03/05 06:31:58;;;;;;;2.72;0.77;;;;;;;17.82;51.89;99547.31;4979266;28;20015;-95
2022/03/05 06:34:40;;;;;;;3.85;1.13;;;;;;;17.80;51.81;99544.75;5001152;28;20067;-93
2022/03/05 06:37:08;;;;;;;3.72;1.27;;;;;;;17.79;51.81;99547.44;5001020;28;20050;-95
2022/03/05 06:39:34;;;;;;;3.60;1.42;;;;;;;17.79;51.99;99544.81;5017331;28;20046;-96
2022/03/05 06:42:03;;;;;;;4.22;1.50;;;;;;;17.79;51.71;99552.72;5010491;28;20103;-95
2022/03/05 06:44:31;;;;;;;3.58;1.15;;;;;;;17.77;51.78;99554.59;4984576;28;20027;-96
2022/03/05 06:46:59;;;;;;;3.78;1.10;;;;;;;17.78;51.75;99545.75;4980872;28;20055;-96
2022/03/05 06:52:47;;;;;;;3.35;1.10;;;;;;;17.76;51.63;99547.59;4981122;28;20054;-96
2022/03/05 06:55:14;;;;;;;4.07;1.25;;;;;;;17.78;51.78;99551.88;4981022;28;20015;-96
2022/03/05 06:57:41;;;;;;;3.78;1.30;;;;;;;17.77;51.66;99549.31;4940312;28;20024;-95
2022/03/05 07:04:01;;;;;;;2.22;0.90;;;;;;;17.77;51.69;99549.31;4961425;28;20079;-95
2022/03/05 07:06:27;;;;;;;3.00;1.30;;;;;;;17.75;51.70;99545.88;4914185;28;20044;-95
2022/03/05 07:09:19;;;;;;;3.45;1.10;;;;;;;17.75;51.56;99553.78;4960618;28;20109;-95
2022/03/05 07:11:50;;;;;;;4.22;1.35;;;;;;;17.77;51.49;99549.31;4961133;28;20024;-95
2022/03/05 07:14:19;;;;;;;3.90;1.23;;;;;;;17.75;51.44;99553.78;4959276;28;20023;-96
2022/03/05 07:16:44;;;;;;;4.15;1.52;;;;;;;17.76;51.44;99558.13;4945390;28;20023;-95
2022/03/05 07:19:23;;;;;;;4.20;1.42;;;;;;;17.75;51.25;99552.03;4961242;28;20035;-96
2022/03/05 07:21:50;;;;;;;2.88;1.13;;;;;;;17.77;51.43;99562.50;4930877;28;20019;-96
2022/03/05 07:24:16;;;;;;;4.50;1.80;;;;;;;17.77;51.29;99558.06;4961249;28;20079;-95
2022/03/05 07:27:04;;;;;;;4.32;1.30;;;;;;;17.76;51.42;99563.41;4961006;28;20015;-95
2022/03/05 07:29:31;;;;;;;3.90;1.50;;;;;;;17.76;51.53;99563.41;4957724;28;20095;-95
2022/03/05 07:31:57;;;;;;;2.92;1.02;;;;;;;17.73;51.27;99567.09;4999649;28;20019;-96
2022/03/05 07:34:34;;;;;;;4.32;1.33;;;;;;;17.77;51.21;99578.34;4999871;28;20019;-96
2022/03/05 07:37:24;;;;;;;2.88;1.00;;;;;;;17.74;51.43;99576.72;5000073;28;20046;-95
2022/03/05 07:43:17;;;;;;;4.60;1.40;;;;;;;17.75;51.18;99577.53;5009840;28;20041;-95
2022/03/05 07:45:45;;;;;;;3.95;1.40;;;;;;;17.74;51.16;99581.13;4993251;28;20030;-95
2022/03/05 07:48:11;;;;;;;3.55;1.20;;;;;;;17.71;51.28;99571.56;5003218;28;20049;-95
2022/03/05 07:50:38;;;;;;;4.03;1.20;;;;;;;17.68;51.34;99583.09;5002581;28;20030;-95
2022/03/05 07:53:04;;;;;;;4.32;1.27;;;;;;;17.67;51.37;99576.13;4997682;28;20019;-95
2022/03/05 07:55:36;;;;;;;5.00;1.38;;;;;;;17.69;51.00;99574.25;5002506;28;20038;-96
2022/03/05 07:58:14;;;;;;;3.50;1.27;;;;;;;17.68;51.27;99574.34;4986735;28;20045;-96
2022/03/05 08:00:43;;;;;;;3.38;1.30;;;;;;;17.68;51.31;99582.25;5002899;28;20085;-96
2022/03/05 08:03:16;;;;;;;4.60;1.60;;;;;;;17.67;51.17;99575.28;5001829;28;20026;-95
2022/03/05 08:05:43;;;;;;;6.20;2.33;;;;;;;17.66;51.09;99574.41;5003004;28;20025;-95
2022/03/05 08:08:16;;;;;;;2.97;0.93;;;;;;;17.67;51.09;99575.28;5009023;28;20025;-95
2022/03/05 08:17:12;;;;;;;4.15;1.40;;;;;;;17.67;50.96;99581.41;4979627;28;20038;-95
2022/03/05 08:19:45;;;;;;;4.15;1.20;;;;;;;17.65;50.74;99575.34;4958496;28;20027;-95
2022/03/05 08:22:16;;;;;;;3.60;1.38;;;;;;;17.66;50.86;99573.53;4978814;28;20023;-96
2022/03/05 08:24:43;;;;;;;3.88;1.15;;;;;;;17.66;51.00;99579.69;4963396;28;20030;-96
2022/03/05 08:27:14;;;;;;;4.07;1.60;;;;;;;17.64;51.00;99576.28;4931976;28;20031;-96
2022/03/05 08:29:39;;;;;;;3.45;1.38;;;;;;;17.64;50.96;99581.56;4963812;28;20027;-96
2022/03/05 08:32:12;;;;;;;4.75;1.20;;;;;;;17.64;50.70;99586.81;4978347;28;20050;-95
2022/03/05 08:35:10;;;;;;;5.05;1.45;;;;;;;17.63;50.87;99587.72;4975981;28;20020;-95
2022/03/05 08:37:37;;;;;;;4.43;1.50;;;;;;;17.64;51.01;99592.09;4963094;28;20039;-96
2022/03/05 08:40:10;;;;;;;5.47;1.55;;;;;;;17.63;50.99;99585.09;4931878;28;20019;-95
2022/03/05 08:42:57;;;;;;;5.22;1.52;;;;;;;17.63;50.91;99587.72;4965852;28;20102;-95
2022/03/05 08:45:54;;;;;;;4.13;1.60;;;;;;;17.62;50.92;99583.38;4999793;28;20030;-95
2022/03/05 08:48:40;;;;;;;3.28;1.55;;;;;;;17.61;50.99;99581.66;5002174;28;20034;-96
2022/03/05 08:58:01;;;;;;;5.38;1.60;;;;;;;17.61;50.79;99581.66;5019203;28;20046;-95
2022/03/05 09:00:29;;;;;;;5.20;1.77;;;;;;;17.59;51.00;99594.09;5017479;28;20317;-95
2022/03/05 09:02:57;;;;;;;3.15;1.10;;;;;;;17.60;50.58;99584.38;4971250;28;20030;-96
2022/03/05 09:05:46;;;;;;;5.38;1.60;;;;;;;17.59;50.77;99594.09;4983779;28;20007;-95
2022/03/05 09:08:14;;;;;;;5.55;1.45;;;;;;;17.58;51.02;99587.09;5002092;28;20010;-96
2022/03/05 09:10:43;;;;;;;4.85;1.35;;;;;;;17.61;50.98;99594.88;4998876;28;20034;-95
2022/03/05 09:13:10;;;;;;;5.70;1.92;;;;;;;17.59;50.69;99588.81;4992507;28;20019;-96
2022/03/05 09:15:42;;;;;;;5.47;1.45;;;;;;;17.59;50.99;99586.19;5002779;28;20007;-95
2022/03/05 09:18:07;;;;;;;5.90;1.55;;;;;;;17.59;50.92;99588.81;4999448;28;20022;-95
2022/03/05 09:20:46;;;;;;;4.50;1.30;;;;;;;17.60;50.78;99592.28;5002063;28;20042;-96
2022/03/05 09:24:01;;;;;;;3.95;1.55;;;;;;;17.58;50.74;99584.47;4987517;28;20011;-95
2022/03/05 09:26:37;;;;;;;4.50;1.27;;;;;;;17.58;50.99;99581.81;4960477;28;20055;-96
2022/03/05 09:29:04;;;;;;;4.55;1.60;;;;;;;17.57;50.95;99582.72;4982720;28;20065;-96
2022/03/05 09:31:39;;;;;;;4.20;1.52;;;;;;;17.57;50.99;99580.09;4973559;28;20008;-96
2022/03/05 09:34:08;;;;;;;3.92;1.48;;;;;;;17.58;50.81;99587.09;5005622;28;20018;-94
2022/03/05 09:37:14;;;;;;;4.63;1.67;;;;;;;17.56;50.94;99578.38;4989386;28;20073;-95
2022/03/05 09:39:40;;;;;;;4.15;1.55;;;;;;;17.55;50.83;99574.03;5003724;28;20038;-95
2022/03/05 09:42:50;;;;;;;4.95;1.63;;;;;;;17.53;50.79;99583.81;5006979;28;20019;-96
2022/03/05 09:48:24;;;;;;;4.53;1.50;;;;;;;17.55;50.97;99587.22;5002423;28;20071;-96
2022/03/05 09:50:50;;;;;;;4.72;1.50;;;;;;;17.54;50.87;99585.53;5001834;28;20043;-95
2022/03/05 09:53:21;;;;;;;4.88;1.85;;;;;;;17.53;50.82;99581.16;5001826;28;20099;-95
2022/03/05 09:58:58;;;;;;;3.08;1.33;;;;;;;17.54;50.79;99574.97;4981829;28;20070;-95
2022/03/05 10:01:32;;;;;;;3.63;1.40;;;;;;;17.52;50.87;99582.94;4944563;28;20035;-95
2022/03/05 10:04:21;;;;;;;3.97;1.50;;;;;;;17.52;50.99;99582.94;4980738;28;20063;-96
2022/03/05 10:07:15;;;;;;;4.07;1.88;;;;;;;17.52;50.93;99574.16;4981790;28;20019;-95
2022/03/05 10:13:31;;;;;;;7.15;1.60;;;;;;;17.53;50.94;99570.63;4981839;28;20050;-96
2022/03/05 10:16:43;;;;;;;3.58;1.40;;;;;;;17.49;50.87;99561.13;4981286;28;20027;-96
2022/03/05 10:19:40;;;;;;;4.32;1.48;;;;;;;17.51;50.85;99567.16;4949284;28;20043;-94
2022/03/05 10:22:11;;;;;;;4.13;1.83;;;;;;;17.48;50.92;99564.69;4980297;28;20027;-94
2022/03/05 10:24:43;;;;;;;4.90;1.38;;;;;;;17.49;50.90;99571.66;4981573;28;20102;-95
2022/03/05 10:27:19;;;;;;;3.83;1.27;;;;;;;17.50;50.97;99578.66;4981330;28;20098;-95
2022/03/05 10:30:07;;;;;;;4.38;1.55;;;;;;;17.51;50.59;99569.81;4981517;28;20026;-96
2022/03/05 10:33:02;;;;;;;4.20;1.63;;;;;;;17.48;50.84;99565.53;4984452;28;20038;-96
2022/03/05 10:35:53;;;;;;;3.70;1.20;;;;;;;17.49;50.80;99571.66;4984828;28;20066;-96
2022/03/05 10:38:41;;;;;;;4.95;1.58;;;;;;;17.48;50.94;99564.69;4997044;28;20054;-96
2022/03/05 10:41:10;;;;;;;4.22;1.42;;;;;;;17.46;50.83;99562.13;5000647;28;20045;-94
2022/03/05 10:43:38;;;;;;;3.58;1.40;;;;;;;17.48;50.83;99559.41;5000676;28;20015;-96
2022/03/05 10:46:09;;;;;;;4.63;1.90;;;;;;;17.48;50.69;99559.41;4982628;28;20042;-95
2022/03/05 10:48:40;;;;;;;4.43;1.65;;;;;;;17.50;50.67;99571.59;4996063;28;20031;-96
2022/03/05 10:51:37;;;;;;;4.30;1.50;;;;;;;17.49;50.55;99567.25;4999817;28;20106;-95
2022/03/05 11:05:10;;;;;;;3.45;1.55;;;;;;;17.44;50.97;99572.72;4980586;28;20063;-96
2022/03/05 11:08:06;;;;;;;4.00;1.60;;;;;;;17.45;50.86;99571.78;4979330;28;20019;-95
2022/03/05 11:10:44;;;;;;;5.47;1.65;;;;;;;17.45;51.13;99570.97;4979232;28;20106;-95
2022/03/05 11:13:16;;;;;;;3.40;1.50;;;;;;;17.43;51.02;99556.97;4964052;28;20019;-95
2022/03/05 11:19:26;;;;;;;4.93;1.60;;;;;;;17.47;50.97;99557.72;4980442;28;20046;-95
2022/03/05 11:28:39;;;;;;;4.00;1.60;;;;;;;17.47;50.59;99561.19;4942288;29;20109;-96
2022/03/05 11:37:52;;;;;;;3.13;1.30;;;;;;;17.46;50.87;99556.84;4942013;29;20064;-95
2022/03/05 11:43:42;;;;;;;4.00;1.50;;;;;;;17.48;50.92;99559.41;4941951;29;20035;-95
2022/03/05 11:46:25;;;;;;;3.42;1.30;;;;;;;17.47;51.13;99555.06;4942936;28;20112;-96
2022/03/05 11:49:06;;;;;;;3.35;1.60;;;;;;;17.48;50.85;99554.13;4959776;28;20035;-96
2022/03/05 11:52:07;;;;;;;2.75;1.23;;;;;;;17.47;50.83;99557.72;4960093;28;20019;-95
2022/03/05 11:58:01;;;;;;;2.88;1.35;;;;;;;17.48;51.05;99554.13;4885426;29;20060;-96
2022/03/05 12:04:27;;;;;;;3.60;1.63;;;;;;;17.48;50.78;99554.13;4903906;29;20040;-96
2022/03/05 12:07:00;;;;;;;3.47;1.70;;;;;;;17.44;51.09;99543.72;4939178;29;20032;-96
2022/03/05 12:09:53;;;;;;;4.15;1.70;;;;;;;17.44;50.82;99538.44;4947835;28;20026;-95
2022/03/05 12:12:27;;;;;;;5.55;2.03;;;;;;;17.47;50.71;99536.59;5018512;28;20082;-96
2022/03/05 12:21:58;;;;;;;4.50;1.73;;;;;;;17.45;51.11;99534.03;4941467;29;20075;-95
2022/03/05 12:24:25;;;;;;;5.55;1.90;;;;;;;17.46;50.87;99519.91;4925414;29;20040;-95
2022/03/05 12:27:10;;;;;;;4.25;1.63;;;;;;;17.45;50.86;99526.94;4925450;29;20076;-96
2022/03/05 12:29:36;;;;;;;5.13;2.00;;;;;;;17.44;50.87;99522.59;4941215;29;20024;-96
2022/03/05 12:32:23;;;;;;;4.07;2.00;;;;;;;17.43;50.80;99515.63;4940827;29;20024;-95
2022/03/05 12:35:08;;;;;;;5.40;2.22;;;;;;;17.44;50.88;99519.97;4940438;28;20021;-95
2022/03/05 12:40:55;;;;;;;4.60;1.90;;;;;;;17.45;50.96;99503.19;4941337;28;20067;-96
2022/03/05 12:43:47;;;;;;;4.03;1.98;;;;;;;17.47;50.86;99504.94;4974248;28;20034;-95
2022/03/05 12:46:17;;;;;;;4.30;1.80;;;;;;;17.45;50.65;99497.94;5008090;28;20038;-96
2022/03/05 12:48:46;;;;;;;5.55;2.10;;;;;;;17.47;50.54;99499.66;5016169;28;20014;-96
2022/03/05 12:51:14;;;;;;;4.78;2.10;;;;;;;17.45;50.92;99495.28;5018552;28;20066;-95
2022/03/05 12:57:05;;;;;;;5.43;2.60;;;;;;;17.50;50.65;99489.81;5007606;28;20041;-96
2022/03/05 12:59:32;;;;;;;4.57;2.28;;;;;;;17.50;50.86;99483.69;4988625;28;20019;-96
2022/03/05 13:02:08;;;;;;;7.05;2.30;;;;;;;17.48;50.90;99488.19;5004052;28;20090;-96
2022/03/05 13:04:39;;;;;;;4.88;2.00;;;;;;;17.50;50.72;99478.41;5003988;28;20022;-95
2022/03/05 13:07:08;;;;;;;5.78;1.98;;;;;;;17.49;50.71;99477.56;5006120;28;20037;-95
2022/03/05 13:09:35;;;;;;;4.55;2.13;;;;;;;17.49;50.92;99476.69;5005453;28;20026;-96
2022/03/05 13:12:07;;;;;;;4.80;1.95;;;;;;;17.52;50.65;99476.53;5004238;28;20042;-95
2022/03/05 13:14:54;;;;;;;4.22;1.77;;;;;;;17.50;50.71;99473.13;4990215;28;20014;-96
2022/03/05 13:17:31;;;;;;;5.40;1.98;;;;;;;17.50;50.69;99470.50;4988716;28;20049;-95
2022/03/05 13:20:37;;;;;;;4.20;2.10;;;;;;;17.51;50.67;99461.63;4990969;28;20034;-96
2022/03/05 13:23:06;;;;;;;4.68;1.98;;;;;;;17.49;50.84;99461.75;5005810;28;20021;-95
2022/03/05 13:25:50;;;;;;;6.28;2.53;;;;;;;17.49;50.74;99460.88;5005787;28;20030;-96
2022/03/05 13:28:29;;;;;;;5.63;2.08;;;;;;;17.50;50.80;99452.03;5004322;28;20026;-96
2022/03/05 13:31:07;;;;;;;5.25;2.30;;;;;;;17.50;50.64;99452.88;5001926;28;20054;-96
2022/03/05 13:33:56;;;;;;;6.05;2.47;;;;;;;17.51;50.84;99459.00;5021736;28;20034;-95
2022/03/05 13:36:52;;;;;;;5.47;2.13;;;;;;;17.51;50.49;99448.44;4968027;28;20073;-96
2022/03/05 13:39:24;;;;;;;4.53;1.95;;;;;;;17.51;50.72;99448.44;5003505;28;20061;-96
2022/03/05 13:41:56;;;;;;;4.20;2.00;;;;;;;17.49;50.85;99451.19;4992533;28;20023;-96
2022/03/05 13:44:42;;;;;;;4.38;1.90;;;;;;;17.51;50.65;99443.19;5021451;28;20038;-95
2022/03/05 13:47:18;;;;;;;5.80;2.40;;;;;;;17.51;50.91;99444.03;5015821;28;20026;-96
2022/03/05 13:54:12;;;;;;;4.25;1.98;;;;;;;17.51;50.68;99446.69;4981187;28;20034;-96
2022/03/05 13:56:52;;;;;;;4.05;1.98;;;;;;;17.51;50.57;99437.91;4980754;28;20103;-96
2022/03/05 13:59:50;;;;;;;5.43;2.28;;;;;;;17.52;50.56;99435.19;4964888;28;20023;-96
2022/03/05 14:02:20;;;;;;;4.60;2.22;;;;;;;17.53;50.66;99436.06;4973596;28;20023;-96
2022/03/05 14:05:22;;;;;;;5.22;2.33;;;;;;;17.52;50.39;99437.84;4965155;28;20047;-96
2022/03/05 14:08:06;;;;;;;3.72;1.95;;;;;;;17.54;50.46;99429.84;4980743;28;20016;-96
2022/03/05 14:10:33;;;;;;;5.55;1.90;;;;;;;17.53;50.64;99430.78;4964395;28;20133;-96
2022/03/05 14:13:03;;;;;;;5.93;2.38;;;;;;;17.53;50.36;99431.63;4979676;28;20015;-95
2022/03/05 14:15:55;;;;;;;4.70;1.95;;;;;;;17.54;50.45;99432.50;4980259;28;20027;-95
2022/03/05 14:18:24;;;;;;;3.72;1.80;;;;;;;17.55;50.40;99434.19;4964773;28;20039;-96
2022/03/05 14:20:55;;;;;;;4.50;2.00;;;;;;;17.54;50.55;99429.84;4980657;28;20050;-95
2022/03/05 14:23:28;;;;;;;2.95;1.55;;;;;;;17.55;50.65;99429.78;4980482;28;20088;-96
2022/03/05 14:25:56;;;;;;;4.82;1.95;;;;;;;17.56;50.33;99430.63;4965256;28;20547;-95
2022/03/05 14:28:28;;;;;;;3.13;1.50;;;;;;;17.54;50.42;99425.41;4948582;28;20014;-95
2022/03/05 14:30:56;;;;;;;4.63;1.80;;;;;;;17.58;50.36;99434.91;4964447;28;20024;-95
2022/03/05 14:33:22;;;;;;;4.68;1.88;;;;;;;17.58;50.53;99420.88;4948339;28;20034;-95
2022/03/05 14:35:50;;;;;;;4.25;1.83;;;;;;;17.57;50.39;99427.06;4980137;28;20023;-96
2022/03/05 14:38:23;;;;;;;3.78;1.60;;;;;;;17.57;50.08;99425.28;4964282;28;20015;-96
2022/03/05 14:40:54;;;;;;;4.43;1.80;;;;;;;17.58;50.32;99423.50;4992539;28;20018;-96
2022/03/05 14:43:40;;;;;;;4.45;1.90;;;;;;;17.59;50.31;99430.50;5002874;28;20042;-96
2022/03/05 14:46:51;;;;;;;3.60;1.69;;;;;;;17.58;50.13;99429.63;4911375;28;16481750;-94
2022/03/05 14:49:23;;;;;;;4.53;1.75;;;;;;;17.61;50.13;99427.75;4988849;28;20279;-94